sensor_id;sensor_type;location;lat;lon;timestamp;temperature;humidity
26099;DHT22;13860;52.370;6.764;2022-08-21T00:01:34;19.80;62.70
26099;DHT22;13860;52.370;6.764;2022-08-21T00:04:39;19.70;62.10
26099;DHT22;13860;52.370;6.764;2022-08-21T00:07:58;19.70;62.20
26099;DHT22;13860;52.370;6.764;2022-08-21T00:11:04;19.60;62.30
26099;DHT22;13860;52.370;6.764;2022-08-21T00:14:13;19.50;62.30
26099;DHT22;13860;52.370;6.764;2022-08-21T00:17:18;19.40;62.40
26099;DHT22;13860;52.370;6.764;2022-08-21T00:20:24;19.40;62.50
26099;DHT22;13860;52.370;6.764;2022-08-21T00:23:30;19.30;63.30
26099;DHT22;13860;52.370;6.764;2022-08-21T00:26:35;19.30;62.80
26099;DHT22;13860;52.370;6.764;2022-08-21T00:29:43;19.30;62.90
26099;DHT22;13860;52.370;6.764;2022-08-21T00:32:48;19.20;63.00
26099;DHT22;13860;52.370;6.764;2022-08-21T00:35:54;19.10;63.00
26099;DHT22;13860;52.370;6.764;2022-08-21T00:38:59;19.10;63.20
26099;DHT22;13860;52.370;6.764;2022-08-21T00:42:04;19.10;63.40
26099;DHT22;13860;52.370;6.764;2022-08-21T00:45:12;19.00;63.40
26099;DHT22;13860;52.370;6.764;2022-08-21T00:48:17;19.00;63.60
26099;DHT22;13860;52.370;6.764;2022-08-21T00:51:25;18.90;63.70
26099;DHT22;13860;52.370;6.764;2022-08-21T00:54:39;18.90;63.80
26099;DHT22;13860;52.370;6.764;2022-08-21T00:57:51;18.90;63.90
26099;DHT22;13860;52.370;6.764;2022-08-21T01:01:00;18.80;63.90
26099;DHT22;13860;52.370;6.764;2022-08-21T01:04:09;18.80;64.00
26099;DHT22;13860;52.370;6.764;2022-08-21T01:07:16;18.80;64.00
26099;DHT22;13860;52.370;6.764;2022-08-21T01:10:24;18.70;64.00
26099;DHT22;13860;52.370;6.764;2022-08-21T01:13:34;18.70;64.10
26099;DHT22;13860;52.370;6.764;2022-08-21T01:16:44;18.70;64.20
26099;DHT22;13860;52.370;6.764;2022-08-21T01:19:49;18.70;64.30
26099;DHT22;13860;52.370;6.764;2022-08-21T01:22:57;18.60;64.20
26099;DHT22;13860;52.370;6.764;2022-08-21T01:26:03;18.60;64.40
26099;DHT22;13860;52.370;6.764;2022-08-21T01:29:13;18.50;64.30
26099;DHT22;13860;52.370;6.764;2022-08-21T01:32:20;18.50;64.40
26099;DHT22;13860;52.370;6.764;2022-08-21T01:35:25;18.50;64.50
26099;DHT22;13860;52.370;6.764;2022-08-21T01:38:33;18.40;64.50
26099;DHT22;13860;52.370;6.764;2022-08-21T01:41:38;18.40;64.60
26099;DHT22;13860;52.370;6.764;2022-08-21T01:44:43;18.40;64.70
26099;DHT22;13860;52.370;6.764;2022-08-21T01:47:50;18.30;64.70
26099;DHT22;13860;52.370;6.764;2022-08-21T01:50:55;18.30;64.70
26099;DHT22;13860;52.370;6.764;2022-08-21T01:54:03;18.20;64.80
26099;DHT22;13860;52.370;6.764;2022-08-21T01:57:09;18.20;64.90
26099;DHT22;13860;52.370;6.764;2022-08-21T02:00:16;18.20;65.00
26099;DHT22;13860;52.370;6.764;2022-08-21T02:03:22;18.10;65.00
26099;DHT22;13860;52.370;6.764;2022-08-21T02:06:37;18.10;65.00
26099;DHT22;13860;52.370;6.764;2022-08-21T02:09:45;18.10;65.10
26099;DHT22;13860;52.370;6.764;2022-08-21T02:12:50;18.10;65.30
26099;DHT22;13860;52.370;6.764;2022-08-21T02:15:55;18.00;65.20
26099;DHT22;13860;52.370;6.764;2022-08-21T02:19:00;18.00;65.30
26099;DHT22;13860;52.370;6.764;2022-08-21T02:22:06;17.90;65.30
26099;DHT22;13860;52.370;6.764;2022-08-21T02:25:14;17.90;65.40
26099;DHT22;13860;52.370;6.764;2022-08-21T02:28:19;17.80;65.50
26099;DHT22;13860;52.370;6.764;2022-08-21T02:31:24;17.80;65.40
26099;DHT22;13860;52.370;6.764;2022-08-21T02:34:29;17.80;65.50
26099;DHT22;13860;52.370;6.764;2022-08-21T02:37:34;17.70;65.60
26099;DHT22;13860;52.370;6.764;2022-08-21T02:40:43;17.70;65.60
26099;DHT22;13860;52.370;6.764;2022-08-21T02:43:52;17.70;65.80
26099;DHT22;13860;52.370;6.764;2022-08-21T02:46:57;17.60;65.70
26099;DHT22;13860;52.370;6.764;2022-08-21T02:50:03;17.50;65.70
26099;DHT22;13860;52.370;6.764;2022-08-21T02:53:10;17.50;65.80
26099;DHT22;13860;52.370;6.764;2022-08-21T02:56:21;17.50;65.90
26099;DHT22;13860;52.370;6.764;2022-08-21T02:59:32;17.50;66.00
26099;DHT22;13860;52.370;6.764;2022-08-21T03:02:37;17.40;66.00
26099;DHT22;13860;52.370;6.764;2022-08-21T03:05:43;17.40;66.10
26099;DHT22;13860;52.370;6.764;2022-08-21T03:08:48;17.30;66.10
26099;DHT22;13860;52.370;6.764;2022-08-21T03:11:56;17.30;66.20
26099;DHT22;13860;52.370;6.764;2022-08-21T03:15:02;17.20;66.30
26099;DHT22;13860;52.370;6.764;2022-08-21T03:18:08;17.20;66.30
26099;DHT22;13860;52.370;6.764;2022-08-21T03:21:13;17.10;66.30
26099;DHT22;13860;52.370;6.764;2022-08-21T03:24:21;17.10;66.40
26099;DHT22;13860;52.370;6.764;2022-08-21T03:27:29;17.10;66.50
26099;DHT22;13860;52.370;6.764;2022-08-21T03:30:36;17.00;66.60
26099;DHT22;13860;52.370;6.764;2022-08-21T03:33:41;17.00;66.60
26099;DHT22;13860;52.370;6.764;2022-08-21T03:36:46;17.00;66.60
26099;DHT22;13860;52.370;6.764;2022-08-21T03:39:51;16.90;66.60
26099;DHT22;13860;52.370;6.764;2022-08-21T03:42:59;16.90;66.70
26099;DHT22;13860;52.370;6.764;2022-08-21T03:46:05;16.90;66.80
26099;DHT22;13860;52.370;6.764;2022-08-21T03:49:10;16.90;66.80
26099;DHT22;13860;52.370;6.764;2022-08-21T03:52:15;16.80;66.80
26099;DHT22;13860;52.370;6.764;2022-08-21T03:55:20;16.80;66.90
26099;DHT22;13860;52.370;6.764;2022-08-21T03:58:28;16.80;66.90
26099;DHT22;13860;52.370;6.764;2022-08-21T04:01:34;16.70;67.00
26099;DHT22;13860;52.370;6.764;2022-08-21T04:04:39;16.70;67.00
26099;DHT22;13860;52.370;6.764;2022-08-21T04:07:44;16.70;67.10
26099;DHT22;13860;52.370;6.764;2022-08-21T04:10:51;16.70;67.10
26099;DHT22;13860;52.370;6.764;2022-08-21T04:13:59;16.60;67.10
26099;DHT22;13860;52.370;6.764;2022-08-21T04:17:04;16.60;67.20
26099;DHT22;13860;52.370;6.764;2022-08-21T04:20:09;16.60;67.20
26099;DHT22;13860;52.370;6.764;2022-08-21T04:23:17;16.60;67.30
26099;DHT22;13860;52.370;6.764;2022-08-21T04:26:25;16.50;67.30
26099;DHT22;13860;52.370;6.764;2022-08-21T04:29:33;16.50;67.40
26099;DHT22;13860;52.370;6.764;2022-08-21T04:32:42;16.50;67.50
26099;DHT22;13860;52.370;6.764;2022-08-21T04:35:47;16.40;67.40
26099;DHT22;13860;52.370;6.764;2022-08-21T04:38:52;16.40;67.50
26099;DHT22;13860;52.370;6.764;2022-08-21T04:41:58;16.40;67.50
26099;DHT22;13860;52.370;6.764;2022-08-21T04:45:06;16.40;67.60
26099;DHT22;13860;52.370;6.764;2022-08-21T04:48:12;16.40;67.70
26099;DHT22;13860;52.370;6.764;2022-08-21T04:51:21;16.40;67.80
26099;DHT22;13860;52.370;6.764;2022-08-21T04:54:28;16.30;67.80
26099;DHT22;13860;52.370;6.764;2022-08-21T04:57:33;16.30;67.80
26099;DHT22;13860;52.370;6.764;2022-08-21T05:00:54;16.30;67.90
26099;DHT22;13860;52.370;6.764;2022-08-21T05:04:02;16.30;68.00
26099;DHT22;13860;52.370;6.764;2022-08-21T05:07:12;16.30;68.00
26099;DHT22;13860;52.370;6.764;2022-08-21T05:10:39;16.20;68.10
26099;DHT22;13860;52.370;6.764;2022-08-21T05:13:45;16.20;68.10
26099;DHT22;13860;52.370;6.764;2022-08-21T05:16:59;16.20;68.10
26099;DHT22;13860;52.370;6.764;2022-08-21T05:20:05;16.20;68.30
26099;DHT22;13860;52.370;6.764;2022-08-21T05:23:12;16.20;68.30
26099;DHT22;13860;52.370;6.764;2022-08-21T05:26:18;16.20;68.40
26099;DHT22;13860;52.370;6.764;2022-08-21T05:29:23;16.20;68.50
26099;DHT22;13860;52.370;6.764;2022-08-21T05:32:30;16.20;68.60
26099;DHT22;13860;52.370;6.764;2022-08-21T05:35:36;16.20;68.70
26099;DHT22;13860;52.370;6.764;2022-08-21T05:38:42;16.20;68.70
26099;DHT22;13860;52.370;6.764;2022-08-21T05:41:47;16.30;68.80
26099;DHT22;13860;52.370;6.764;2022-08-21T05:44:52;16.30;68.90
26099;DHT22;13860;52.370;6.764;2022-08-21T05:48:05;16.30;69.00
26099;DHT22;13860;52.370;6.764;2022-08-21T05:51:13;16.30;69.20
26099;DHT22;13860;52.370;6.764;2022-08-21T05:54:18;16.30;69.20
26099;DHT22;13860;52.370;6.764;2022-08-21T05:57:23;16.40;69.30
26099;DHT22;13860;52.370;6.764;2022-08-21T06:00:28;16.40;69.30
26099;DHT22;13860;52.370;6.764;2022-08-21T06:03:39;16.50;69.40
26099;DHT22;13860;52.370;6.764;2022-08-21T06:06:44;16.60;69.60
26099;DHT22;13860;52.370;6.764;2022-08-21T06:09:49;16.70;69.60
26099;DHT22;13860;52.370;6.764;2022-08-21T06:12:54;16.80;69.70
26099;DHT22;13860;52.370;6.764;2022-08-21T06:16:05;16.90;69.70
26099;DHT22;13860;52.370;6.764;2022-08-21T06:19:13;17.00;69.80
26099;DHT22;13860;52.370;6.764;2022-08-21T06:22:18;17.10;69.90
26099;DHT22;13860;52.370;6.764;2022-08-21T06:25:24;17.30;69.80
26099;DHT22;13860;52.370;6.764;2022-08-21T06:28:29;17.40;69.80
26099;DHT22;13860;52.370;6.764;2022-08-21T06:31:34;17.60;69.80
26099;DHT22;13860;52.370;6.764;2022-08-21T06:34:42;17.80;69.90
26099;DHT22;13860;52.370;6.764;2022-08-21T06:37:47;17.90;69.80
26099;DHT22;13860;52.370;6.764;2022-08-21T06:40:52;18.10;69.70
26099;DHT22;13860;52.370;6.764;2022-08-21T06:43:59;18.30;69.70
26099;DHT22;13860;52.370;6.764;2022-08-21T06:47:04;18.50;69.60
26099;DHT22;13860;52.370;6.764;2022-08-21T06:50:12;18.70;69.50
26099;DHT22;13860;52.370;6.764;2022-08-21T06:53:18;18.90;69.50
26099;DHT22;13860;52.370;6.764;2022-08-21T06:56:24;19.10;69.40
26099;DHT22;13860;52.370;6.764;2022-08-21T06:59:29;19.20;69.30
26099;DHT22;13860;52.370;6.764;2022-08-21T07:02:34;19.40;69.10
26099;DHT22;13860;52.370;6.764;2022-08-21T07:05:45;19.60;68.90
26099;DHT22;13860;52.370;6.764;2022-08-21T07:08:50;19.80;68.70
26099;DHT22;13860;52.370;6.764;2022-08-21T07:11:59;20.00;68.50
26099;DHT22;13860;52.370;6.764;2022-08-21T07:15:06;20.20;68.30
26099;DHT22;13860;52.370;6.764;2022-08-21T07:18:11;20.40;68.10
26099;DHT22;13860;52.370;6.764;2022-08-21T07:21:19;20.60;67.90
26099;DHT22;13860;52.370;6.764;2022-08-21T07:24:27;20.70;67.60
26099;DHT22;13860;52.370;6.764;2022-08-21T07:27:32;20.90;67.40
26099;DHT22;13860;52.370;6.764;2022-08-21T07:30:37;21.00;67.20
26099;DHT22;13860;52.370;6.764;2022-08-21T07:33:43;21.10;67.00
26099;DHT22;13860;52.370;6.764;2022-08-21T07:36:50;21.30;67.00
26099;DHT22;13860;52.370;6.764;2022-08-21T07:39:56;21.40;66.90
26099;DHT22;13860;52.370;6.764;2022-08-21T07:43:01;21.50;66.70
26099;DHT22;13860;52.370;6.764;2022-08-21T07:46:06;21.70;66.60
26099;DHT22;13860;52.370;6.764;2022-08-21T07:49:11;21.80;66.40
26099;DHT22;13860;52.370;6.764;2022-08-21T07:52:18;21.90;66.30
26099;DHT22;13860;52.370;6.764;2022-08-21T07:55:23;22.10;66.00
26099;DHT22;13860;52.370;6.764;2022-08-21T07:58:28;22.20;65.80
26099;DHT22;13860;52.370;6.764;2022-08-21T08:01:34;22.30;65.60
26099;DHT22;13860;52.370;6.764;2022-08-21T08:04:39;22.50;65.50
26099;DHT22;13860;52.370;6.764;2022-08-21T08:07:54;22.60;65.30
26099;DHT22;13860;52.370;6.764;2022-08-21T08:11:00;22.70;65.10
26099;DHT22;13860;52.370;6.764;2022-08-21T08:14:06;22.80;64.90
26099;DHT22;13860;52.370;6.764;2022-08-21T08:17:11;23.00;64.80
26099;DHT22;13860;52.370;6.764;2022-08-21T08:20:17;23.10;64.50
26099;DHT22;13860;52.370;6.764;2022-08-21T08:23:26;23.20;64.30
26099;DHT22;13860;52.370;6.764;2022-08-21T08:26:32;23.40;64.20
26099;DHT22;13860;52.370;6.764;2022-08-21T08:29:37;23.40;63.90
26099;DHT22;13860;52.370;6.764;2022-08-21T08:32:42;23.60;63.90
26099;DHT22;13860;52.370;6.764;2022-08-21T08:35:49;23.70;63.50
26099;DHT22;13860;52.370;6.764;2022-08-21T08:38:57;23.90;63.20
26099;DHT22;13860;52.370;6.764;2022-08-21T08:42:07;24.00;63.00
26099;DHT22;13860;52.370;6.764;2022-08-21T08:45:37;24.10;62.70
26099;DHT22;13860;52.370;6.764;2022-08-21T08:48:49;24.30;62.50
26099;DHT22;13860;52.370;6.764;2022-08-21T08:51:59;24.50;62.30
26099;DHT22;13860;52.370;6.764;2022-08-21T08:55:12;24.60;62.10
26099;DHT22;13860;52.370;6.764;2022-08-21T08:58:22;24.80;61.80
26099;DHT22;13860;52.370;6.764;2022-08-21T09:01:27;25.00;61.70
26099;DHT22;13860;52.370;6.764;2022-08-21T09:04:40;25.10;61.50
26099;DHT22;13860;52.370;6.764;2022-08-21T09:07:54;25.30;61.30
26099;DHT22;13860;52.370;6.764;2022-08-21T09:11:13;25.40;61.00
26099;DHT22;13860;52.370;6.764;2022-08-21T09:14:26;25.60;60.80
26099;DHT22;13860;52.370;6.764;2022-08-21T09:17:44;25.70;60.60
26099;DHT22;13860;52.370;6.764;2022-08-21T09:21:03;25.90;60.40
26099;DHT22;13860;52.370;6.764;2022-08-21T09:24:24;26.00;60.00
26099;DHT22;13860;52.370;6.764;2022-08-21T09:27:34;26.20;59.80
26099;DHT22;13860;52.370;6.764;2022-08-21T09:30:40;26.30;59.70
26099;DHT22;13860;52.370;6.764;2022-08-21T09:33:45;26.40;59.40
26099;DHT22;13860;52.370;6.764;2022-08-21T09:36:50;26.50;59.20
26099;DHT22;13860;52.370;6.764;2022-08-21T09:39:57;26.60;59.00
26099;DHT22;13860;52.370;6.764;2022-08-21T09:43:11;26.70;58.80
26099;DHT22;13860;52.370;6.764;2022-08-21T09:46:22;26.80;58.60
26099;DHT22;13860;52.370;6.764;2022-08-21T09:49:29;26.80;58.50
26099;DHT22;13860;52.370;6.764;2022-08-21T09:52:34;26.90;58.40
26099;DHT22;13860;52.370;6.764;2022-08-21T09:55:49;27.00;58.30
26099;DHT22;13860;52.370;6.764;2022-08-21T09:59:19;27.20;57.90
26099;DHT22;13860;52.370;6.764;2022-08-21T10:02:28;27.30;57.90
26099;DHT22;13860;52.370;6.764;2022-08-21T10:05:33;27.40;57.70
26099;DHT22;13860;52.370;6.764;2022-08-21T10:08:40;27.50;57.60
26099;DHT22;13860;52.370;6.764;2022-08-21T10:11:50;27.60;57.20
26099;DHT22;13860;52.370;6.764;2022-08-21T10:15:08;27.70;56.90
26099;DHT22;13860;52.370;6.764;2022-08-21T10:18:21;27.80;57.00
26099;DHT22;13860;52.370;6.764;2022-08-21T10:21:30;27.80;56.50
26099;DHT22;13860;52.370;6.764;2022-08-21T10:24:51;27.90;56.90
26099;DHT22;13860;52.370;6.764;2022-08-21T10:28:02;28.00;56.70
26099;DHT22;13860;52.370;6.764;2022-08-21T10:31:23;28.10;56.50
26099;DHT22;13860;52.370;6.764;2022-08-21T10:34:40;28.10;56.70
26099;DHT22;13860;52.370;6.764;2022-08-21T10:37:56;28.20;56.00
26099;DHT22;13860;52.370;6.764;2022-08-21T10:41:11;28.20;56.30
26099;DHT22;13860;52.370;6.764;2022-08-21T10:44:25;28.30;56.10
26099;DHT22;13860;52.370;6.764;2022-08-21T10:47:41;28.30;55.80
26099;DHT22;13860;52.370;6.764;2022-08-21T10:50:50;28.30;55.60
26099;DHT22;13860;52.370;6.764;2022-08-21T10:54:02;28.30;55.60
26099;DHT22;13860;52.370;6.764;2022-08-21T10:57:14;28.30;55.40
26099;DHT22;13860;52.370;6.764;2022-08-21T11:00:36;28.30;55.30
26099;DHT22;13860;52.370;6.764;2022-08-21T11:03:51;28.30;55.40
26099;DHT22;13860;52.370;6.764;2022-08-21T11:07:06;28.30;55.00
26099;DHT22;13860;52.370;6.764;2022-08-21T11:10:23;28.50;55.10
26099;DHT22;13860;52.370;6.764;2022-08-21T11:13:35;28.50;54.80
26099;DHT22;13860;52.370;6.764;2022-08-21T11:16:45;28.60;54.60
26099;DHT22;13860;52.370;6.764;2022-08-21T11:20:02;28.60;54.40
26099;DHT22;13860;52.370;6.764;2022-08-21T11:23:14;28.70;54.10
26099;DHT22;13860;52.370;6.764;2022-08-21T11:26:29;28.70;54.00
26099;DHT22;13860;52.370;6.764;2022-08-21T11:29:38;28.80;54.10
26099;DHT22;13860;52.370;6.764;2022-08-21T11:32:57;28.80;54.00
26099;DHT22;13860;52.370;6.764;2022-08-21T11:36:12;28.90;53.70
26099;DHT22;13860;52.370;6.764;2022-08-21T11:39:24;29.00;53.60
26099;DHT22;13860;52.370;6.764;2022-08-21T11:42:36;29.00;53.50
26099;DHT22;13860;52.370;6.764;2022-08-21T11:45:45;29.10;53.30
26099;DHT22;13860;52.370;6.764;2022-08-21T11:49:11;29.10;53.20
26099;DHT22;13860;52.370;6.764;2022-08-21T11:52:22;29.20;53.40
26099;DHT22;13860;52.370;6.764;2022-08-21T11:55:31;29.20;52.90
26099;DHT22;13860;52.370;6.764;2022-08-21T11:58:40;29.20;52.80
26099;DHT22;13860;52.370;6.764;2022-08-21T12:01:48;29.20;52.60
26099;DHT22;13860;52.370;6.764;2022-08-21T12:04:58;29.20;52.50
26099;DHT22;13860;52.370;6.764;2022-08-21T12:08:26;29.20;52.40
26099;DHT22;13860;52.370;6.764;2022-08-21T12:11:31;29.20;52.80
26099;DHT22;13860;52.370;6.764;2022-08-21T12:14:41;29.30;52.40
26099;DHT22;13860;52.370;6.764;2022-08-21T12:17:56;29.30;52.20
26099;DHT22;13860;52.370;6.764;2022-08-21T12:21:16;29.30;51.90
26099;DHT22;13860;52.370;6.764;2022-08-21T12:24:35;29.20;51.90
26099;DHT22;13860;52.370;6.764;2022-08-21T12:27:46;29.20;51.60
26099;DHT22;13860;52.370;6.764;2022-08-21T12:30:52;29.20;51.70
26099;DHT22;13860;52.370;6.764;2022-08-21T12:34:01;29.10;51.70
26099;DHT22;13860;52.370;6.764;2022-08-21T12:37:20;29.00;52.20
26099;DHT22;13860;52.370;6.764;2022-08-21T12:40:31;29.00;51.50
26099;DHT22;13860;52.370;6.764;2022-08-21T12:43:42;28.90;51.60
26099;DHT22;13860;52.370;6.764;2022-08-21T12:46:51;28.80;51.60
26099;DHT22;13860;52.370;6.764;2022-08-21T12:50:02;28.80;51.60
26099;DHT22;13860;52.370;6.764;2022-08-21T12:53:10;28.70;51.50
26099;DHT22;13860;52.370;6.764;2022-08-21T12:56:25;28.70;51.70
26099;DHT22;13860;52.370;6.764;2022-08-21T12:59:32;28.60;51.90
26099;DHT22;13860;52.370;6.764;2022-08-21T13:02:41;28.60;51.90
26099;DHT22;13860;52.370;6.764;2022-08-21T13:05:47;28.70;51.80
26099;DHT22;13860;52.370;6.764;2022-08-21T13:08:58;28.70;51.70
26099;DHT22;13860;52.370;6.764;2022-08-21T13:12:07;28.70;51.60
26099;DHT22;13860;52.370;6.764;2022-08-21T13:15:14;28.70;51.40
26099;DHT22;13860;52.370;6.764;2022-08-21T13:18:26;28.70;51.40
26099;DHT22;13860;52.370;6.764;2022-08-21T13:21:38;28.80;51.30
26099;DHT22;13860;52.370;6.764;2022-08-21T13:24:47;28.80;51.20
26099;DHT22;13860;52.370;6.764;2022-08-21T13:28:05;28.80;51.10
26099;DHT22;13860;52.370;6.764;2022-08-21T13:31:11;28.80;50.90
26099;DHT22;13860;52.370;6.764;2022-08-21T13:34:17;28.70;51.10
26099;DHT22;13860;52.370;6.764;2022-08-21T13:37:23;28.70;51.00
26099;DHT22;13860;52.370;6.764;2022-08-21T13:40:37;28.60;51.00
26099;DHT22;13860;52.370;6.764;2022-08-21T13:43:49;28.60;51.00
26099;DHT22;13860;52.370;6.764;2022-08-21T13:46:54;28.60;51.50
26099;DHT22;13860;52.370;6.764;2022-08-21T13:49:59;28.50;50.90
26099;DHT22;13860;52.370;6.764;2022-08-21T13:53:07;28.50;50.80
26099;DHT22;13860;52.370;6.764;2022-08-21T13:56:26;28.50;50.80
26099;DHT22;13860;52.370;6.764;2022-08-21T13:59:35;28.40;50.80
26099;DHT22;13860;52.370;6.764;2022-08-21T14:02:43;28.40;50.70
26099;DHT22;13860;52.370;6.764;2022-08-21T14:05:49;28.40;50.70
26099;DHT22;13860;52.370;6.764;2022-08-21T14:08:57;28.30;50.50
26099;DHT22;13860;52.370;6.764;2022-08-21T14:12:16;28.30;50.40
26099;DHT22;13860;52.370;6.764;2022-08-21T14:15:29;28.30;50.10
26099;DHT22;13860;52.370;6.764;2022-08-21T14:18:43;28.30;50.20
26099;DHT22;13860;52.370;6.764;2022-08-21T14:21:48;28.40;50.10
26099;DHT22;13860;52.370;6.764;2022-08-21T14:24:59;28.40;50.10
26099;DHT22;13860;52.370;6.764;2022-08-21T14:28:19;28.40;50.00
26099;DHT22;13860;52.370;6.764;2022-08-21T14:31:31;28.40;49.90
26099;DHT22;13860;52.370;6.764;2022-08-21T14:34:44;28.40;50.20
26099;DHT22;13860;52.370;6.764;2022-08-21T14:37:49;28.40;50.20
26099;DHT22;13860;52.370;6.764;2022-08-21T14:40:59;28.30;50.00
26099;DHT22;13860;52.370;6.764;2022-08-21T14:44:06;28.30;50.00
26099;DHT22;13860;52.370;6.764;2022-08-21T14:47:14;28.20;49.90
26099;DHT22;13860;52.370;6.764;2022-08-21T14:50:19;28.10;49.90
26099;DHT22;13860;52.370;6.764;2022-08-21T14:53:28;28.10;49.90
26099;DHT22;13860;52.370;6.764;2022-08-21T14:56:35;28.00;49.90
26099;DHT22;13860;52.370;6.764;2022-08-21T14:59:40;27.90;49.90
26099;DHT22;13860;52.370;6.764;2022-08-21T15:02:48;27.80;50.10
26099;DHT22;13860;52.370;6.764;2022-08-21T15:05:53;27.80;50.00
26099;DHT22;13860;52.370;6.764;2022-08-21T15:08:58;27.70;50.00
26099;DHT22;13860;52.370;6.764;2022-08-21T15:12:06;27.70;50.10
26099;DHT22;13860;52.370;6.764;2022-08-21T15:15:12;27.60;50.00
26099;DHT22;13860;52.370;6.764;2022-08-21T15:18:23;27.60;50.10
26099;DHT22;13860;52.370;6.764;2022-08-21T15:21:28;27.50;50.10
26099;DHT22;13860;52.370;6.764;2022-08-21T15:24:33;27.50;50.20
26099;DHT22;13860;52.370;6.764;2022-08-21T15:27:38;27.40;50.20
26099;DHT22;13860;52.370;6.764;2022-08-21T15:30:44;27.30;50.20
26099;DHT22;13860;52.370;6.764;2022-08-21T15:33:52;27.20;50.30
26099;DHT22;13860;52.370;6.764;2022-08-21T15:36:58;27.20;50.30
26099;DHT22;13860;52.370;6.764;2022-08-21T15:40:03;27.20;50.50
26099;DHT22;13860;52.370;6.764;2022-08-21T15:43:23;27.10;50.50
26099;DHT22;13860;52.370;6.764;2022-08-21T15:46:31;27.10;50.50
26099;DHT22;13860;52.370;6.764;2022-08-21T15:49:39;27.10;50.70
26099;DHT22;13860;52.370;6.764;2022-08-21T15:52:47;27.10;50.80
26099;DHT22;13860;52.370;6.764;2022-08-21T15:55:51;27.00;50.90
26099;DHT22;13860;52.370;6.764;2022-08-21T15:59:00;27.00;51.10
26099;DHT22;13860;52.370;6.764;2022-08-21T16:02:06;27.00;51.20
26099;DHT22;13860;52.370;6.764;2022-08-21T16:05:15;26.90;51.30
26099;DHT22;13860;52.370;6.764;2022-08-21T16:08:21;26.90;51.50
26099;DHT22;13860;52.370;6.764;2022-08-21T16:11:26;26.80;51.70
26099;DHT22;13860;52.370;6.764;2022-08-21T16:14:35;26.80;51.90
26099;DHT22;13860;52.370;6.764;2022-08-21T16:17:43;26.70;52.00
26099;DHT22;13860;52.370;6.764;2022-08-21T16:20:52;26.60;52.10
26099;DHT22;13860;52.370;6.764;2022-08-21T16:23:57;26.60;52.30
26099;DHT22;13860;52.370;6.764;2022-08-21T16:27:04;26.50;52.30
26099;DHT22;13860;52.370;6.764;2022-08-21T16:30:11;26.50;52.50
26099;DHT22;13860;52.370;6.764;2022-08-21T16:33:21;26.40;52.60
26099;DHT22;13860;52.370;6.764;2022-08-21T16:36:29;26.30;52.60
26099;DHT22;13860;52.370;6.764;2022-08-21T16:39:35;26.20;52.60
26099;DHT22;13860;52.370;6.764;2022-08-21T16:42:41;26.20;52.70
26099;DHT22;13860;52.370;6.764;2022-08-21T16:45:47;26.10;52.80
26099;DHT22;13860;52.370;6.764;2022-08-21T16:48:52;26.10;52.90
26099;DHT22;13860;52.370;6.764;2022-08-21T16:52:00;26.00;52.90
26099;DHT22;13860;52.370;6.764;2022-08-21T16:55:06;26.00;53.00
26099;DHT22;13860;52.370;6.764;2022-08-21T16:58:15;25.90;53.00
26099;DHT22;13860;52.370;6.764;2022-08-21T17:01:24;25.90;53.10
26099;DHT22;13860;52.370;6.764;2022-08-21T17:04:30;25.80;53.20
26099;DHT22;13860;52.370;6.764;2022-08-21T17:07:38;25.70;53.20
26099;DHT22;13860;52.370;6.764;2022-08-21T17:10:46;25.70;53.40
26099;DHT22;13860;52.370;6.764;2022-08-21T17:13:51;25.70;53.50
26099;DHT22;13860;52.370;6.764;2022-08-21T17:16:56;25.60;53.40
26099;DHT22;13860;52.370;6.764;2022-08-21T17:20:02;25.50;53.50
26099;DHT22;13860;52.370;6.764;2022-08-21T17:23:10;25.50;53.60
26099;DHT22;13860;52.370;6.764;2022-08-21T17:26:15;25.40;53.60
26099;DHT22;13860;52.370;6.764;2022-08-21T17:29:24;25.40;53.60
26099;DHT22;13860;52.370;6.764;2022-08-21T17:32:30;25.30;53.60
26099;DHT22;13860;52.370;6.764;2022-08-21T17:35:35;25.30;53.70
26099;DHT22;13860;52.370;6.764;2022-08-21T17:38:43;25.30;53.80
26099;DHT22;13860;52.370;6.764;2022-08-21T17:41:48;25.20;53.90
26099;DHT22;13860;52.370;6.764;2022-08-21T17:44:59;25.10;53.90
26099;DHT22;13860;52.370;6.764;2022-08-21T17:48:05;25.10;54.00
26099;DHT22;13860;52.370;6.764;2022-08-21T17:51:10;25.10;54.10
26099;DHT22;13860;52.370;6.764;2022-08-21T17:54:18;25.00;54.10
26099;DHT22;13860;52.370;6.764;2022-08-21T17:57:23;25.00;54.30
26099;DHT22;13860;52.370;6.764;2022-08-21T18:00:30;24.90;54.30
26099;DHT22;13860;52.370;6.764;2022-08-21T18:03:36;24.80;54.50
26099;DHT22;13860;52.370;6.764;2022-08-21T18:06:41;24.80;54.60
26099;DHT22;13860;52.370;6.764;2022-08-21T18:09:49;24.80;54.70
26099;DHT22;13860;52.370;6.764;2022-08-21T18:13:07;24.70;54.90
26099;DHT22;13860;52.370;6.764;2022-08-21T18:16:13;24.60;55.00
26099;DHT22;13860;52.370;6.764;2022-08-21T18:19:21;24.60;55.00
26099;DHT22;13860;52.370;6.764;2022-08-21T18:22:27;24.50;55.10
26099;DHT22;13860;52.370;6.764;2022-08-21T18:25:35;24.50;55.20
26099;DHT22;13860;52.370;6.764;2022-08-21T18:28:40;24.40;55.40
26099;DHT22;13860;52.370;6.764;2022-08-21T18:31:46;24.40;55.40
26099;DHT22;13860;52.370;6.764;2022-08-21T18:34:53;24.30;55.50
26099;DHT22;13860;52.370;6.764;2022-08-21T18:37:59;24.30;55.60
26099;DHT22;13860;52.370;6.764;2022-08-21T18:41:06;24.30;55.80
26099;DHT22;13860;52.370;6.764;2022-08-21T18:44:13;24.20;55.80
26099;DHT22;13860;52.370;6.764;2022-08-21T18:47:22;24.20;55.90
26099;DHT22;13860;52.370;6.764;2022-08-21T18:50:28;24.10;56.00
26099;DHT22;13860;52.370;6.764;2022-08-21T18:53:35;24.10;56.10
26099;DHT22;13860;52.370;6.764;2022-08-21T18:56:43;24.00;56.10
26099;DHT22;13860;52.370;6.764;2022-08-21T18:59:48;24.00;56.30
26099;DHT22;13860;52.370;6.764;2022-08-21T19:02:53;23.90;56.30
26099;DHT22;13860;52.370;6.764;2022-08-21T19:05:58;23.90;56.30
26099;DHT22;13860;52.370;6.764;2022-08-21T19:09:06;23.80;56.40
26099;DHT22;13860;52.370;6.764;2022-08-21T19:12:20;23.80;56.50
26099;DHT22;13860;52.370;6.764;2022-08-21T19:15:31;23.80;56.60
26099;DHT22;13860;52.370;6.764;2022-08-21T19:18:39;23.70;56.60
26099;DHT22;13860;52.370;6.764;2022-08-21T19:21:44;23.70;56.70
26099;DHT22;13860;52.370;6.764;2022-08-21T19:24:50;23.60;56.70
26099;DHT22;13860;52.370;6.764;2022-08-21T19:27:58;23.60;56.70
26099;DHT22;13860;52.370;6.764;2022-08-21T19:31:11;23.50;56.90
26099;DHT22;13860;52.370;6.764;2022-08-21T19:34:17;23.50;56.90
26099;DHT22;13860;52.370;6.764;2022-08-21T19:37:24;23.50;56.80
26099;DHT22;13860;52.370;6.764;2022-08-21T19:40:29;23.40;56.80
26099;DHT22;13860;52.370;6.764;2022-08-21T19:43:41;23.40;56.90
26099;DHT22;13860;52.370;6.764;2022-08-21T19:46:49;23.30;57.00
26099;DHT22;13860;52.370;6.764;2022-08-21T19:49:59;23.30;57.00